createdAt,value
2019-02-26T00:01:18.516Z,70.66
2019-02-26T00:03:50.022Z,71.24
2019-02-26T00:06:25.384Z,72.28
2019-02-26T00:09:01.298Z,73.35
2019-02-26T00:11:34.063Z,72.17
2019-02-26T00:14:08.115Z,71.47
2019-02-26T00:16:42.403Z,70.93
2019-02-26T00:19:16.442Z,69.93
2019-02-26T00:21:51.795Z,68.68
2019-02-26T00:24:24.972Z,67.90
2019-02-26T00:26:59.328Z,67.90
2019-02-26T00:29:33.238Z,67.14
2019-02-26T00:32:07.119Z,66.51
2019-02-26T00:34:41.553Z,66.31
2019-02-26T00:37:15.236Z,64.87
2019-02-26T00:39:49.760Z,64.09
2019-02-26T00:42:24.291Z,63.29
2019-02-26T00:45:00.933Z,63.01
2019-02-26T00:47:34.474Z,61.46
2019-02-26T00:50:09.565Z,58.81
2019-02-26T00:52:43.191Z,56.76
2019-02-26T00:55:16.297Z,55.82
2019-02-26T00:57:49.551Z,54.66
2019-02-26T01:00:24.631Z,54.59
2019-02-26T01:02:58.128Z,55.00
2019-02-26T01:05:31.728Z,54.75
2019-02-26T01:08:04.043Z,54.29
2019-02-26T01:10:41.076Z,55.29
2019-02-26T01:13:14.448Z,59.25
2019-02-26T01:15:47.769Z,61.29
2019-02-26T01:18:20.862Z,63.52
2019-02-26T01:20:57.299Z,65.29
2019-02-26T01:23:29.692Z,65.89
2019-02-26T01:26:02.793Z,65.22
2019-02-26T01:28:36.553Z,66.35
2019-02-26T01:31:10.511Z,66.34
2019-02-26T01:33:43.760Z,62.91
2019-02-26T01:36:19.153Z,60.88
2019-02-26T01:38:53.151Z,61.50
2019-02-26T01:41:27.344Z,65.82
2019-02-26T01:44:00.686Z,65.38
2019-02-26T01:46:34.498Z,68.06
2019-02-26T01:49:09.148Z,68.51
2019-02-26T01:51:43.295Z,69.86
2019-02-26T01:54:18.101Z,71.30
2019-02-26T01:56:53.426Z,72.17
2019-02-26T01:59:26.763Z,73.67
2019-02-26T02:01:59.983Z,73.52
2019-02-26T02:04:34.284Z,73.85
2019-02-26T02:07:08.098Z,76.85
2019-02-26T02:09:41.780Z,76.11
2019-02-26T02:12:14.508Z,75.33
2019-02-26T02:14:47.902Z,77.51
2019-02-26T02:17:21.286Z,76.77
2019-02-26T02:19:55.203Z,76.93
2019-02-26T02:22:29.607Z,77.20
2019-02-26T02:25:02.680Z,76.82
2019-02-26T02:27:36.885Z,75.80
2019-02-26T02:30:17.914Z,74.96
2019-02-26T02:32:53.644Z,75.00
2019-02-26T02:35:23.867Z,74.70
2019-02-26T02:38:00.102Z,74.55
2019-02-26T02:40:33.675Z,74.20
2019-02-26T02:43:09.791Z,74.03
2019-02-26T02:45:41.133Z,74.19
2019-02-26T02:48:14.630Z,72.40
2019-02-26T02:50:48.781Z,72.84
2019-02-26T02:53:23.962Z,73.29
2019-02-26T02:55:57.124Z,74.87
2019-02-26T02:58:30.492Z,75.42
2019-02-26T03:01:03.562Z,77.31
2019-02-26T03:03:37.373Z,77.54
2019-02-26T03:06:12.366Z,78.47
2019-02-26T03:08:47.816Z,80.95
2019-02-26T03:11:20.451Z,83.59
2019-02-26T03:13:53.947Z,83.43
2019-02-26T03:16:29.838Z,83.39
2019-02-26T03:19:04.740Z,85.74
2019-02-26T03:21:38.116Z,91.24
2019-02-26T03:24:11.799Z,95.76
2019-02-26T03:26:45.333Z,96.47
2019-02-26T03:29:18.950Z,95.92
2019-02-26T03:31:55.317Z,96.19
2019-02-26T03:34:28.203Z,97.42
2019-02-26T03:37:03.876Z,97.48
2019-02-26T03:39:36.677Z,98.43
2019-02-26T03:42:11.259Z,98.02
2019-02-26T03:44:46.956Z,97.53
2019-02-26T03:47:20.493Z,97.09
2019-02-26T03:49:53.789Z,96.69
2019-02-26T03:52:28.989Z,96.80
2019-02-26T03:55:03.536Z,97.54
2019-02-26T03:57:40.969Z,97.84
2019-02-26T04:00:14.907Z,96.49
2019-02-26T04:02:50.934Z,95.18
2019-02-26T04:05:22.329Z,95.09
2019-02-26T04:07:58.884Z,95.56
2019-02-26T04:10:31.154Z,95.04
2019-02-26T04:13:04.096Z,94.83
2019-02-26T04:15:38.382Z,94.91
2019-02-26T04:18:11.903Z,95.28
2019-02-26T04:20:45.194Z,93.48
2019-02-26T04:23:19.910Z,93.51
2019-02-26T04:26:15.940Z,94.71
2019-02-26T04:28:57.805Z,96.01
2019-02-26T04:32:03.205Z,95.47
2019-02-26T04:34:53.939Z,95.35
2019-02-26T04:38:10.719Z,95.11
2019-02-26T04:41:00.396Z,95.10
2019-02-26T04:44:29.205Z,93.62
2019-02-26T04:47:14.058Z,93.68
2019-02-26T04:49:46.641Z,93.89
2019-02-26T04:52:19.754Z,93.48
2019-02-26T04:54:52.604Z,94.24
2019-02-26T04:57:25.993Z,94.73
2019-02-26T05:00:01.059Z,95.18
2019-02-26T05:02:34.235Z,95.92
2019-02-26T05:05:07.136Z,97.31
2019-02-26T05:07:42.313Z,97.52
2019-02-26T05:10:13.862Z,99.30
2019-02-26T05:12:47.208Z,99.41
2019-02-26T05:15:23.082Z,99.38
2019-02-26T05:17:55.348Z,100.00
2019-02-26T05:20:28.622Z,100.00
2019-02-26T05:23:03.090Z,100.00
2019-02-26T05:25:39.641Z,100.00
2019-02-26T05:28:14.511Z,100.00
2019-02-26T05:30:49.491Z,100.00
2019-02-26T05:33:24.742Z,100.00
2019-02-26T05:35:57.740Z,100.00
2019-02-26T05:38:32.464Z,100.00
2019-02-26T05:41:05.323Z,100.00
2019-02-26T05:43:38.749Z,100.00
2019-02-26T05:46:12.419Z,100.00
2019-02-26T05:48:46.359Z,100.00
2019-02-26T05:51:20.609Z,100.00
2019-02-26T05:53:53.179Z,100.00
2019-02-26T05:56:26.589Z,100.00
2019-02-26T05:59:02.043Z,100.00
2019-02-26T06:01:35.083Z,100.00
2019-02-26T06:04:10.095Z,100.00
2019-02-26T06:06:45.151Z,100.00
2019-02-26T06:09:20.073Z,100.00
2019-02-26T06:11:53.350Z,100.00
2019-02-26T06:14:27.624Z,100.00
2019-02-26T06:17:01.227Z,97.16
2019-02-26T06:19:45.198Z,93.86
2019-02-26T06:22:21.371Z,93.10
2019-02-26T06:24:57.278Z,93.37
2019-02-26T06:27:29.985Z,93.90
2019-02-26T06:30:06.392Z,92.26
2019-02-26T06:32:40.148Z,91.13
2019-02-26T06:35:16.441Z,90.55
2019-02-26T06:37:49.642Z,90.22
2019-02-26T06:40:22.886Z,90.12
2019-02-26T06:42:56.003Z,88.98
2019-02-26T06:45:28.952Z,86.76
2019-02-26T06:48:02.033Z,86.83
2019-02-26T06:50:36.789Z,87.84
2019-02-26T06:53:13.173Z,87.07
2019-02-26T06:55:46.554Z,85.60
2019-02-26T06:58:26.889Z,83.68
2019-02-26T07:01:00.090Z,81.72
2019-02-26T07:03:33.891Z,83.49
2019-02-26T07:06:06.566Z,81.07
2019-02-26T07:08:42.012Z,78.18
2019-02-26T07:11:15.012Z,75.90
2019-02-26T07:13:48.007Z,74.47
2019-02-26T07:16:21.204Z,76.71
2019-02-26T07:18:55.002Z,77.48
2019-02-26T07:21:28.050Z,79.73
2019-02-26T07:24:01.538Z,79.93
2019-02-26T07:26:36.717Z,80.51
2019-02-26T07:29:12.613Z,81.32
2019-02-26T07:31:44.269Z,81.39
2019-02-26T07:34:18.253Z,81.65
2019-02-26T07:36:52.601Z,82.46
2019-02-26T07:39:25.515Z,80.74
2019-02-26T07:41:59.009Z,80.22
2019-02-26T07:44:32.750Z,80.37
2019-02-26T07:47:06.667Z,79.57
2019-02-26T07:49:40.791Z,79.64
2019-02-26T07:52:13.863Z,80.18
2019-02-26T07:54:47.562Z,81.01
2019-02-26T07:57:23.020Z,80.35
2019-02-26T07:59:57.391Z,80.34
2019-02-26T08:02:32.415Z,80.37
2019-02-26T08:05:06.154Z,79.53
2019-02-26T08:07:39.202Z,78.12
2019-02-26T08:10:15.093Z,76.68
2019-02-26T08:12:48.872Z,75.28
2019-02-26T08:15:22.302Z,81.40
2019-02-26T08:17:57.930Z,80.74
2019-02-26T08:20:33.004Z,79.49
2019-02-26T08:23:05.681Z,77.88
2019-02-26T08:25:39.174Z,79.54
2019-02-26T08:28:13.539Z,81.41
2019-02-26T08:30:49.783Z,77.64
2019-02-26T08:33:23.358Z,75.88
2019-02-26T08:35:57.298Z,74.62
2019-02-26T08:38:30.575Z,74.98
2019-02-26T08:41:03.472Z,74.71
2019-02-26T08:43:36.472Z,73.80
2019-02-26T08:46:11.685Z,72.43
2019-02-26T08:48:46.633Z,74.92
2019-02-26T08:51:21.475Z,74.46
2019-02-26T08:53:55.290Z,71.47
2019-02-26T08:56:31.544Z,70.40
2019-02-26T08:59:05.245Z,70.57
2019-02-26T09:01:38.302Z,76.52
2019-02-26T09:04:12.742Z,73.17
2019-02-26T09:06:46.402Z,74.99
2019-02-26T09:09:20.998Z,69.52
2019-02-26T09:11:55.958Z,66.70
2019-02-26T09:14:34.503Z,64.64
2019-02-26T09:17:05.859Z,63.34
2019-02-26T09:19:39.157Z,63.01
2019-02-26T09:22:14.993Z,64.72
2019-02-26T09:24:51.846Z,64.89
2019-02-26T09:27:27.114Z,60.42
2019-02-26T09:30:00.004Z,61.18
2019-02-26T09:32:35.019Z,60.55
2019-02-26T09:35:09.634Z,56.11
2019-02-26T09:37:45.381Z,51.98
2019-02-26T09:40:23.031Z,46.41
2019-02-26T09:42:57.261Z,49.04
2019-02-26T09:45:30.340Z,48.62
2019-02-26T09:48:04.090Z,50.20
2019-02-26T09:50:38.585Z,50.58
2019-02-26T09:53:12.975Z,48.74
2019-02-26T09:55:46.000Z,46.03
2019-02-26T09:58:21.183Z,46.51
2019-02-26T10:00:54.596Z,44.62
2019-02-26T10:03:29.547Z,41.59
2019-02-26T10:06:03.168Z,39.32
2019-02-26T10:08:37.526Z,38.60
2019-02-26T10:11:11.207Z,38.60
2019-02-26T10:13:46.640Z,34.70
2019-02-26T10:16:21.686Z,34.70
2019-02-26T10:18:56.797Z,33.63
2019-02-26T10:21:29.458Z,34.48
2019-02-26T10:24:04.500Z,31.96
2019-02-26T10:26:39.344Z,29.67
2019-02-26T10:29:13.062Z,31.67
2019-02-26T10:31:46.225Z,31.12
2019-02-26T10:34:20.833Z,29.57
2019-02-26T10:36:54.953Z,28.64
2019-02-26T10:39:28.464Z,27.65
2019-02-26T10:42:02.734Z,29.57
2019-02-26T10:44:36.180Z,28.73
2019-02-26T10:47:10.666Z,26.97
2019-02-26T10:49:45.031Z,27.33
2019-02-26T10:52:21.561Z,29.48
2019-02-26T10:54:54.463Z,29.24
2019-02-26T10:57:28.890Z,27.49
2019-02-26T11:00:06.402Z,29.58
2019-02-26T11:02:43.208Z,28.72
2019-02-26T11:05:20.778Z,29.26
2019-02-26T11:07:53.198Z,28.22
2019-02-26T11:10:26.335Z,27.42
2019-02-26T11:12:59.846Z,23.82
2019-02-26T11:15:35.936Z,24.91
2019-02-26T11:18:11.508Z,23.51
2019-02-26T11:20:45.804Z,22.69
2019-02-26T11:23:18.783Z,21.57
2019-02-26T11:25:51.816Z,21.26
2019-02-26T11:28:27.300Z,23.44
2019-02-26T11:30:59.635Z,21.38
2019-02-26T11:33:33.660Z,22.07
2019-02-26T11:36:08.205Z,21.42
2019-02-26T11:38:42.616Z,21.74
2019-02-26T11:41:17.321Z,20.49
2019-02-26T11:43:49.912Z,20.04
2019-02-26T11:46:24.777Z,19.83
2019-02-26T11:48:58.452Z,19.72
2019-02-26T11:51:37.098Z,18.13
2019-02-26T11:54:08.276Z,19.76
2019-02-26T11:56:44.618Z,17.48
2019-02-26T11:59:19.337Z,18.61
2019-02-26T12:01:51.790Z,20.87
2019-02-26T12:04:25.541Z,19.73
2019-02-26T12:07:01.032Z,16.17
2019-02-26T12:09:35.683Z,17.15
2019-02-26T12:12:11.481Z,18.57
2019-02-26T12:14:45.782Z,18.07
2019-02-26T12:17:18.959Z,16.74
2019-02-26T12:19:53.347Z,17.61
2019-02-26T12:22:27.915Z,18.33
2019-02-26T12:25:05.143Z,17.44
2019-02-26T12:27:39.019Z,17.69
2019-02-26T12:30:18.098Z,18.58
2019-02-26T12:32:53.068Z,19.39
2019-02-26T12:35:29.694Z,18.15
2019-02-26T12:38:17.416Z,15.51
2019-02-26T12:40:41.129Z,16.77
2019-02-26T12:43:16.328Z,17.54
2019-02-26T12:45:49.330Z,17.44
2019-02-26T12:48:22.899Z,16.85
2019-02-26T12:50:58.302Z,16.34
2019-02-26T12:53:44.121Z,17.04
2019-02-26T12:56:17.968Z,16.18
2019-02-26T12:58:54.484Z,16.95
2019-02-26T13:01:26.390Z,18.14
2019-02-26T13:04:00.008Z,17.32
2019-02-26T13:06:35.030Z,17.56
2019-02-26T13:09:09.443Z,18.99
2019-02-26T13:12:00.218Z,17.82
2019-02-26T13:14:17.894Z,19.92
2019-02-26T13:16:53.357Z,19.55
2019-02-26T13:19:32.682Z,18.25
2019-02-26T13:22:06.679Z,17.27
2019-02-26T13:24:39.213Z,18.07
2019-02-26T13:27:12.911Z,18.90
2019-02-26T13:29:54.075Z,17.54
2019-02-26T13:32:26.234Z,16.47
2019-02-26T13:35:05.310Z,16.06
2019-02-26T13:37:36.616Z,17.02
2019-02-26T13:40:12.530Z,18.51
2019-02-26T13:42:49.880Z,19.92
2019-02-26T13:45:23.619Z,19.06
2019-02-26T13:48:01.191Z,19.11
2019-02-26T13:50:32.777Z,17.82
2019-02-26T13:53:06.867Z,17.51
2019-02-26T13:55:40.620Z,17.43
2019-02-26T13:58:14.304Z,18.83
2019-02-26T14:00:48.103Z,18.07
2019-02-26T14:03:21.437Z,18.16
2019-02-26T14:05:55.304Z,20.24
2019-02-26T14:08:28.909Z,18.92
2019-02-26T14:11:04.480Z,18.24
2019-02-26T14:13:37.951Z,17.77
2019-02-26T14:16:11.029Z,18.48
2019-02-26T14:18:44.337Z,18.11
2019-02-26T14:21:18.791Z,17.30
2019-02-26T14:23:52.300Z,17.55
2019-02-26T14:26:25.282Z,17.51
2019-02-26T14:28:58.683Z,18.43
2019-02-26T14:31:32.424Z,18.84
2019-02-26T14:34:06.581Z,17.56
2019-02-26T14:36:39.979Z,17.32
2019-02-26T14:39:13.694Z,17.68
2019-02-26T14:41:47.276Z,17.68
2019-02-26T14:44:20.787Z,19.34
2019-02-26T14:46:55.308Z,18.34
2019-02-26T14:49:28.248Z,20.45
2019-02-26T14:52:00.778Z,18.02
2019-02-26T14:54:34.349Z,18.36
2019-02-26T14:57:07.862Z,17.67
2019-02-26T14:59:40.858Z,19.23
2019-02-26T15:02:14.533Z,19.23
2019-02-26T15:04:48.455Z,17.04
2019-02-26T15:07:22.137Z,17.04
2019-02-26T15:09:54.802Z,17.01
2019-02-26T15:12:27.771Z,16.77
2019-02-26T15:15:03.918Z,18.29
2019-02-26T15:17:38.398Z,16.69
2019-02-26T15:20:16.117Z,16.69
2019-02-26T15:22:50.040Z,17.50
2019-02-26T15:25:23.337Z,17.50
2019-02-26T15:28:04.700Z,19.62
2019-02-26T15:30:31.858Z,19.08
2019-02-26T15:33:11.141Z,18.06
2019-02-26T15:35:41.013Z,19.57
2019-02-26T15:38:15.427Z,18.91
2019-02-26T15:40:51.159Z,19.50
2019-02-26T15:43:25.138Z,21.09
2019-02-26T15:45:59.808Z,19.63
2019-02-26T15:48:36.036Z,19.88
2019-02-26T15:51:14.436Z,20.74
2019-02-26T15:53:45.267Z,22.04
2019-02-26T15:56:20.385Z,21.39
2019-02-26T15:58:54.482Z,21.84
2019-02-26T16:01:28.077Z,23.92
2019-02-26T16:04:02.458Z,22.98
2019-02-26T16:06:36.277Z,21.96
2019-02-26T16:09:12.456Z,22.68
2019-02-26T16:11:45.117Z,23.50
2019-02-26T16:14:18.566Z,24.26
2019-02-26T16:16:52.091Z,24.07
2019-02-26T16:19:25.370Z,24.48
2019-02-26T16:22:01.144Z,24.20
2019-02-26T16:24:34.177Z,24.66
2019-02-26T16:27:09.649Z,25.64
2019-02-26T16:29:42.703Z,26.47
2019-02-26T16:32:23.498Z,27.21
2019-02-26T16:35:01.933Z,25.91
2019-02-26T16:37:38.782Z,25.31
2019-02-26T16:40:12.254Z,26.43
2019-02-26T16:42:45.659Z,25.98
2019-02-26T16:45:20.210Z,26.63
2019-02-26T16:47:53.273Z,26.57
2019-02-26T16:50:26.984Z,26.80
2019-02-26T16:53:01.197Z,26.89
2019-02-26T16:55:34.714Z,27.27
2019-02-26T16:58:08.740Z,27.94
2019-02-26T17:00:41.917Z,28.70
2019-02-26T17:03:15.409Z,29.50
2019-02-26T17:05:48.937Z,29.47
2019-02-26T17:08:22.528Z,30.05
2019-02-26T17:10:56.246Z,30.60
2019-02-26T17:13:29.402Z,30.64
2019-02-26T17:16:02.492Z,30.81
2019-02-26T17:18:37.414Z,31.16
2019-02-26T17:21:10.286Z,31.12
2019-02-26T17:23:44.858Z,31.73
2019-02-26T17:26:19.178Z,31.97
2019-02-26T17:28:52.991Z,32.35
2019-02-26T17:31:28.690Z,32.62
2019-02-26T17:34:02.351Z,32.80
2019-02-26T17:36:35.994Z,32.58
2019-02-26T17:39:09.212Z,33.33
2019-02-26T17:41:44.777Z,33.65
2019-02-26T17:44:17.928Z,32.94
2019-02-26T17:46:51.368Z,33.20
2019-02-26T17:49:24.406Z,34.13
2019-02-26T17:51:58.051Z,33.82
2019-02-26T17:54:36.864Z,33.88
2019-02-26T17:57:11.182Z,33.56
2019-02-26T17:59:44.307Z,33.17
2019-02-26T18:02:17.178Z,33.30
2019-02-26T18:04:50.648Z,34.09
2019-02-26T18:07:24.600Z,34.54
2019-02-26T18:09:57.957Z,34.86
2019-02-26T18:12:31.459Z,35.23
2019-02-26T18:15:05.708Z,35.48
2019-02-26T18:17:42.053Z,35.58
2019-02-26T18:20:16.428Z,35.84
2019-02-26T18:22:48.833Z,35.15
2019-02-26T18:25:22.368Z,34.25
2019-02-26T18:27:56.348Z,34.25
2019-02-26T18:30:29.658Z,34.27
2019-02-26T18:33:03.272Z,33.54
2019-02-26T18:35:36.370Z,33.41
2019-02-26T18:38:09.650Z,33.15
2019-02-26T18:40:42.744Z,32.86
2019-02-26T18:43:16.429Z,32.70
2019-02-26T18:45:49.626Z,33.66
2019-02-26T18:48:23.170Z,33.69
2019-02-26T18:50:56.732Z,34.86
2019-02-26T18:53:29.865Z,35.48
2019-02-26T18:56:04.301Z,35.92
2019-02-26T18:58:38.466Z,36.18
2019-02-26T19:01:11.940Z,36.47
2019-02-26T19:03:45.561Z,36.88
2019-02-26T19:06:19.046Z,36.39
2019-02-26T19:08:52.747Z,36.34
2019-02-26T19:11:26.395Z,37.00
2019-02-26T19:14:00.193Z,35.80
2019-02-26T19:16:33.493Z,36.42
2019-02-26T19:19:06.786Z,36.93
2019-02-26T19:21:41.582Z,36.33
2019-02-26T19:24:15.717Z,36.17
2019-02-26T19:26:49.418Z,35.84
2019-02-26T19:29:23.499Z,36.00
2019-02-26T19:31:57.049Z,35.92
2019-02-26T19:34:31.121Z,35.43
2019-02-26T19:37:04.649Z,35.01
2019-02-26T19:39:38.306Z,35.29
2019-02-26T19:42:11.716Z,34.78
2019-02-26T19:44:44.701Z,34.54
2019-02-26T19:47:20.526Z,35.08
2019-02-26T19:49:54.024Z,35.62
2019-02-26T19:52:27.761Z,36.58
2019-02-26T19:55:01.155Z,37.03
2019-02-26T19:57:34.651Z,36.26
2019-02-26T20:00:11.121Z,36.47
2019-02-26T20:02:43.964Z,37.17
2019-02-26T20:05:16.832Z,37.11
2019-02-26T20:07:50.722Z,37.81
2019-02-26T20:10:24.556Z,37.67
2019-02-26T20:13:00.676Z,37.71
2019-02-26T20:15:32.963Z,38.12
2019-02-26T20:18:05.785Z,37.60
2019-02-26T20:20:41.081Z,37.14
2019-02-26T20:23:14.818Z,37.03
2019-02-26T20:25:47.935Z,35.81
2019-02-26T20:28:22.182Z,35.44
2019-02-26T20:30:55.291Z,36.92
2019-02-26T20:33:28.494Z,36.55
2019-02-26T20:36:01.278Z,36.38
2019-02-26T20:38:35.281Z,35.93
2019-02-26T20:41:08.660Z,35.43
2019-02-26T20:43:42.361Z,35.10
2019-02-26T20:46:15.898Z,35.08
2019-02-26T20:48:49.462Z,35.55
2019-02-26T20:51:26.940Z,35.62
2019-02-26T20:53:58.508Z,36.04
2019-02-26T20:56:32.492Z,36.25
2019-02-26T20:59:06.026Z,36.20
2019-02-26T21:01:40.170Z,35.91
2019-02-26T21:04:13.498Z,35.27
2019-02-26T21:06:46.279Z,34.93
2019-02-26T21:09:19.846Z,34.14
2019-02-26T21:11:53.654Z,34.30
2019-02-26T21:14:28.537Z,34.48
2019-02-26T21:17:02.257Z,34.18
2019-02-26T21:19:36.206Z,34.34
2019-02-26T21:22:09.250Z,34.60
2019-02-26T21:24:42.464Z,35.95
2019-02-26T21:27:15.724Z,37.35
2019-02-26T21:29:49.648Z,38.04
2019-02-26T21:32:25.631Z,38.94
2019-02-26T21:34:58.893Z,39.73
2019-02-26T21:37:32.896Z,40.21
2019-02-26T21:40:07.210Z,39.32
2019-02-26T21:42:41.199Z,39.10
2019-02-26T21:45:16.147Z,40.79
2019-02-26T21:47:49.231Z,41.26
2019-02-26T21:50:23.028Z,42.38
2019-02-26T21:52:59.922Z,42.47
2019-02-26T21:55:40.643Z,43.11
2019-02-26T21:58:06.442Z,43.42
2019-02-26T22:00:38.988Z,44.88
2019-02-26T22:03:13.209Z,45.93
2019-02-26T22:05:46.719Z,46.11
2019-02-26T22:08:19.789Z,46.70
2019-02-26T22:10:52.905Z,46.81
2019-02-26T22:13:29.122Z,45.17
2019-02-26T22:16:01.645Z,45.09
2019-02-26T22:18:34.782Z,44.46
2019-02-26T22:21:08.521Z,44.17
2019-02-26T22:23:42.481Z,43.37
2019-02-26T22:26:15.629Z,43.30
2019-02-26T22:28:49.425Z,44.25
2019-02-26T22:31:22.858Z,44.69
2019-02-26T22:33:56.023Z,44.72
2019-02-26T22:36:30.786Z,44.40
2019-02-26T22:39:05.524Z,44.56
2019-02-26T22:41:40.829Z,44.50
2019-02-26T22:44:14.642Z,43.22
2019-02-26T22:46:48.141Z,42.63
2019-02-26T22:49:21.742Z,41.91
2019-02-26T22:51:58.466Z,42.05
2019-02-26T22:54:29.748Z,44.10
2019-02-26T22:57:02.979Z,45.07
2019-02-26T22:59:36.019Z,46.15
2019-02-26T23:02:09.266Z,45.10
2019-02-26T23:04:43.906Z,44.95
2019-02-26T23:07:17.564Z,44.76
2019-02-26T23:09:52.504Z,44.98
2019-02-26T23:12:27.025Z,45.22
2019-02-26T23:15:00.985Z,45.86
2019-02-26T23:17:34.901Z,45.52
2019-02-26T23:20:10.487Z,44.55
2019-02-26T23:22:44.154Z,43.68
2019-02-26T23:25:17.810Z,45.78
2019-02-26T23:27:50.665Z,45.46
2019-02-26T23:30:24.965Z,45.20
2019-02-26T23:33:00.112Z,45.65
2019-02-26T23:35:33.376Z,45.67
2019-02-26T23:38:09.086Z,45.55
2019-02-26T23:40:42.667Z,45.23
2019-02-26T23:43:15.242Z,44.86
2019-02-26T23:45:48.543Z,44.85
2019-02-26T23:48:21.448Z,45.11
2019-02-26T23:50:54.429Z,45.53
2019-02-26T23:53:26.691Z,45.70
2019-02-26T23:56:00.111Z,46.33
2019-02-26T23:58:33.375Z,46.44
